Map

Track Data

SID SEASON NUMBER BASIN SUBBASIN NAME ISO_TIME NATURE LAT LON WMO_WIND WMO_PRES WMO_AGENCY TRACK_TYPE DIST2LAND LANDFALL IFLAG USA_AGENCY USA_ATCF_ID USA_LAT USA_LON USA_RECORD USA_STATUS USA_WIND USA_PRES USA_SSHS USA_R34_NE USA_R34_SE USA_R34_SW USA_R34_NW USA_R50_NE USA_R50_SE USA_R50_SW USA_R50_NW USA_R64_NE USA_R64_SE USA_R64_SW USA_R64_NW USA_POCI USA_ROCI USA_RMW USA_EYE TOKYO_LAT TOKYO_LON TOKYO_GRADE TOKYO_WIND TOKYO_PRES TOKYO_R50_DIR TOKYO_R50_LONG TOKYO_R50_SHORT TOKYO_R30_DIR TOKYO_R30_LONG TOKYO_R30_SHORT TOKYO_LAND CMA_LAT CMA_LON CMA_CAT CMA_WIND CMA_PRES HKO_LAT HKO_LON HKO_CAT HKO_WIND HKO_PRES NEWDELHI_LAT NEWDELHI_LON NEWDELHI_GRADE NEWDELHI_WIND NEWDELHI_PRES NEWDELHI_CI NEWDELHI_DP NEWDELHI_POCI REUNION_LAT REUNION_LON REUNION_TYPE REUNION_WIND REUNION_PRES REUNION_TNUM REUNION_CI REUNION_RMW REUNION_R34_NE REUNION_R34_SE REUNION_R34_SW REUNION_R34_NW REUNION_R50_NE REUNION_R50_SE REUNION_R50_SW REUNION_R50_NW REUNION_R64_NE REUNION_R64_SE REUNION_R64_SW REUNION_R64_NW BOM_LAT BOM_LON BOM_TYPE BOM_WIND BOM_PRES BOM_TNUM BOM_CI BOM_RMW BOM_R34_NE BOM_R34_SE BOM_R34_SW BOM_R34_NW BOM_R50_NE BOM_R50_SE BOM_R50_SW BOM_R50_NW BOM_R64_NE BOM_R64_SE BOM_R64_SW BOM_R64_NW BOM_ROCI BOM_POCI BOM_EYE BOM_POS_METHOD BOM_PRES_METHOD NADI_LAT NADI_LON NADI_CAT NADI_WIND NADI_PRES WELLINGTON_LAT WELLINGTON_LON WELLINGTON_WIND WELLINGTON_PRES DS824_LAT DS824_LON DS824_STAGE DS824_WIND DS824_PRES TD9636_LAT TD9636_LON TD9636_STAGE TD9636_WIND TD9636_PRES TD9635_LAT TD9635_LON TD9635_WIND TD9635_PRES TD9635_ROCI NEUMANN_LAT NEUMANN_LON NEUMANN_CLASS NEUMANN_WIND NEUMANN_PRES MLC_LAT MLC_LON MLC_CLASS MLC_WIND MLC_PRES USA_GUST BOM_GUST BOM_GUST_PER REUNION_GUST REUNION_GUST_PER USA_SEAHGT USA_SEARAD_NE USA_SEARAD_SE USA_SEARAD_SW USA_SEARAD_NW STORM_SPEED STORM_DIR
1880346S15068 1881 34 SI MM NOT_NAMED 1880-12-11 06:00:00 NR -14.6000 68.3000 reunion spur-split 1281 1272 _____O________ -1 -14.6000 68.3000 99 9.90000 2 255
1880346S15068 1881 34 SI MM NOT_NAMED 1880-12-11 09:00:00 NR -14.6256 68.2026 spur-split 1272 1257 _____P________ -1 -14.6256 68.2026 99 2 255
1880346S15068 1881 34 SI MM NOT_NAMED 1880-12-11 12:00:00 NR -14.6536 68.0979 spur-split 1257 1248 _____P________ -1 -14.6536 68.0979 99 2 254
1880346S15068 1881 34 SI MM NOT_NAMED 1880-12-11 15:00:00 NR -14.6862 67.9784 spur-split 1248 1229 _____P________ -1 -14.6862 67.9784 99 3 254
1880346S15068 1881 34 SI MM NOT_NAMED 1880-12-11 18:00:00 NR -14.7258 67.8367 spur-split 1229 1214 _____P________ -1 -14.7258 67.8367 99 3 254
1880346S15068 1881 34 SI MM NOT_NAMED 1880-12-11 21:00:00 NR -14.7747 67.6655 spur-split 1214 1196 _____P________ -1 -14.7747 67.6655 99 4 253
1880346S15068 1881 34 SI MM NOT_NAMED 1880-12-12 00:00:00 NR -14.8353 67.4573 spur-split 1196 1163 _____P________ -1 -14.8353 67.4573 99 5 253
1880346S15068 1881 34 SI MM NOT_NAMED 1880-12-12 03:00:00 NR -14.9096 67.2046 spur-split 1163 1129 _____P________ -1 -14.9096 67.2046 99 6 253
1880346S15068 1881 34 SI MM NOT_NAMED 1880-12-12 06:00:00 NR -15.0000 66.9000 reunion spur-split 1129 1096 _____O________ -1 -15.0000 66.9000 99 9.90000 7 253
1880346S15068 1881 34 SI MM NOT_NAMED 1880-12-12 09:00:00 NR -15.1078 66.5386 spur-split 1087 1054 _____P________ -1 -15.1078 66.5386 99 8 253
1880346S15068 1881 34 SI MM NOT_NAMED 1880-12-12 12:00:00 NR -15.2317 66.1267 spur-split 1045 996 _____P________ -1 -15.2317 66.1267 99 9 253
1880346S15068 1881 34 SI MM NOT_NAMED 1880-12-12 15:00:00 NR -15.3695 65.6732 spur-split 996 946 _____P________ -1 -15.3695 65.6732 99 10 252
1880346S15068 1881 34 SI MM NOT_NAMED 1880-12-12 18:00:00 NR -15.5193 65.1873 spur-split 946 889 _____P________ -1 -15.5193 65.1873 99 10 252
1880346S15068 1881 34 SI MM NOT_NAMED 1880-12-12 21:00:00 NR -15.6791 64.6780 spur-split 889 839 _____P________ -1 -15.6791 64.6780 99 10 252
1880346S15068 1881 34 SI MM NOT_NAMED 1880-12-13 00:00:00 NR -15.8470 64.1542 spur-split 839 782 _____P________ -1 -15.8470 64.1542 99 11 251
1880346S15068 1881 34 SI MM NOT_NAMED 1880-12-13 03:00:00 NR -16.0212 63.6252 spur-split 774 718 _____P________ -1 -16.0212 63.6252 99 11 251
1880346S15068 1881 34 SI MM NOT_NAMED 1880-12-13 06:00:00 NR -16.2000 63.1000 reunion spur-split 718 662 _____O________ -1 -16.2000 63.1000 99 9.90000 10 250
1880346S15068 1881 34 SI MM NOT_NAMED 1880-12-13 09:00:00 NR -16.3712 62.6093 spur-split 662 614 _____P________ -1 -16.3712 62.6093 99 10 250
1880346S15068 1881 34 SI MM NOT_NAMED 1880-12-13 12:00:00 NR -16.5487 62.1156 spur-split 614 560 _____P________ -1 -16.5487 62.1156 99 10 249
1880346S15068 1881 34 SI MM NOT_NAMED 1880-12-13 15:00:00 NR -16.7317 61.6208 spur-split 560 514 _____P________ -1 -16.7317 61.6208 99 10 249
1880346S15068 1881 34 SI MM NOT_NAMED 1880-12-13 18:00:00 NR -16.9192 61.1269 spur-split 506 461 _____P________ -1 -16.9192 61.1269 99 10 248
1880346S15068 1881 34 SI MM NOT_NAMED 1880-12-13 21:00:00 NR -17.1106 60.6359 spur-split 453 409 _____P________ -1 -17.1106 60.6359 99 10 248
1880346S15068 1881 34 SI MM NOT_NAMED 1880-12-14 00:00:00 NR -17.3050 60.1497 spur-split 402 359 _____P________ -1 -17.3050 60.1497 99 10 247
1880346S15068 1881 34 SI MM NOT_NAMED 1880-12-14 03:00:00 NR -17.5018 59.6704 spur-split 359 311 _____P________ -1 -17.5018 59.6704 99 10 246
1880346S15068 1881 34 SI MM NOT_NAMED 1880-12-14 06:00:00 NR -17.7000 59.2000 reunion spur-split 311 271 _____O________ -1 -17.7000 59.2000 99 9.90000 10 246
1880346S15068 1881 34 SI MM NOT_NAMED 1880-12-14 09:00:00 NR -17.8925 58.7376 spur-split 267 232 _____P________ -1 -17.8925 58.7376 99 10 246
1880346S15068 1881 34 SI MM NOT_NAMED 1880-12-14 12:00:00 NR -18.0873 58.2830 spur-split 232 202 _____P________ -1 -18.0873 58.2830 99 9 245
1880346S15068 1881 34 SI MM NOT_NAMED 1880-12-14 15:00:00 NR -18.2841 57.8360 spur-split 201 179 _____P________ -1 -18.2841 57.8360 99 9 245
1880346S15068 1881 34 SI MM NOT_NAMED 1880-12-14 18:00:00 NR -18.4831 57.3960 spur-split 179 165 _____P________ -1 -18.4831 57.3960 99 9 244
1880346S15068 1881 34 SI MM NOT_NAMED 1880-12-14 21:00:00 NR -18.6843 56.9628 spur-split 165 162 _____P________ -1 -18.6843 56.9628 99 9 244
1880346S15068 1881 34 SI MM NOT_NAMED 1880-12-15 00:00:00 NR -18.8875 56.5360 spur-split 170 168 _____P________ -1 -18.8875 56.5360 99 9 243
1880346S15068 1881 34 SI MM NOT_NAMED 1880-12-15 03:00:00 NR -19.0927 56.1152 spur-split 184 184 _____P________ -1 -19.0927 56.1152 99 9 242
1880346S15068 1881 34 SI MM NOT_NAMED 1880-12-15 06:00:00 NR -19.3000 55.7000 reunion spur-split 190 167 _____O________ -1 -19.3000 55.7000 99 9.90000 9 242
1880346S15068 1881 34 SI MM NOT_NAMED 1880-12-15 09:00:00 NR -19.5231 55.2541 spur-split 167 148 _____P________ -1 -19.5231 55.2541 99 10 242
1880346S15068 1881 34 SI MM NOT_NAMED 1880-12-15 12:00:00 NR -19.7505 54.8106 spur-split 143 143 _____P________ -1 -19.7505 54.8106 99 9 241
1880346S15068 1881 34 SI MM NOT_NAMED 1880-12-15 15:00:00 NR -19.9783 54.3748 spur-split 145 145 _____P________ -1 -19.9783 54.3748 99 9 241
1880346S15068 1881 34 SI MM NOT_NAMED 1880-12-15 18:00:00 NR -20.2031 53.9520 spur-split 160 160 _____P________ -1 -20.2031 53.9520 99 9 240
1880346S15068 1881 34 SI MM NOT_NAMED 1880-12-15 21:00:00 NR -20.4212 53.5476 spur-split 193 188 _____P________ -1 -20.4212 53.5476 99 9 240
1880346S15068 1881 34 SI MM NOT_NAMED 1880-12-16 00:00:00 NR -20.6291 53.1671 spur-split 215 215 _____P________ -1 -20.6291 53.1671 99 8 240
1880346S15068 1881 34 SI MM NOT_NAMED 1880-12-16 03:00:00 NR -20.8231 52.8160 spur-split 251 250 _____P________ -1 -20.8231 52.8160 99 7 239
1880346S15068 1881 34 SI MM NOT_NAMED 1880-12-16 06:00:00 NR -21.0000 52.5000 reunion spur-split 280 280 _____O________ -1 -21.0000 52.5000 99 9.90000 6 239
1880346S15068 1881 34 SI MM NOT_NAMED 1880-12-16 09:00:00 NR -21.1572 52.2229 spur-split 311 311 _____P________ -1 -21.1572 52.2229 99 6 238
1880346S15068 1881 34 SI MM NOT_NAMED 1880-12-16 12:00:00 NR -21.2964 51.9816 spur-split 332 332 _____P________ -1 -21.2964 51.9816 99 5 238
1880346S15068 1881 34 SI MM NOT_NAMED 1880-12-16 15:00:00 NR -21.4203 51.7710 spur-split 349 334 _____P________ -1 -21.4203 51.7710 99 4 237
1880346S15068 1881 34 SI MM NOT_NAMED 1880-12-16 18:00:00 NR -21.5315 51.5860 spur-split 334 317 _____P________ -1 -21.5315 51.5860 99 4 237
1880346S15068 1881 34 SI MM NOT_NAMED 1880-12-16 21:00:00 NR -21.6325 51.4216 spur-split 317 310 _____P________ -1 -21.6325 51.4216 99 4 236
1880346S15068 1881 34 SI MM NOT_NAMED 1880-12-17 00:00:00 NR -21.7259 51.2726 spur-split 310 292 _____P________ -1 -21.7259 51.2726 99 3 236
1880346S15068 1881 34 SI MM NOT_NAMED 1880-12-17 03:00:00 NR -21.8142 51.1338 spur-split 292 284 _____P________ -1 -21.8142 51.1338 99 3 235
1880346S15068 1881 34 SI MM NOT_NAMED 1880-12-17 06:00:00 NR -21.9000 51.0000 reunion spur-split 284 _____O________ -1 -21.9000 51.0000 99 9.90000 3 236

About IBTrACS Database

This database is a web-friendly format of International Best Track Archive for Climate Stewardship (IBTrACS), a global best track data archive curated by NOAA dating back to 1842.

Updated: 2021-12-03